createdAt,value
2017-06-09T00:00:15.407Z,0
2017-06-09T00:00:56.092Z,0
2017-06-09T00:01:36.678Z,0
2017-06-09T00:02:17.263Z,0
2017-06-09T00:02:57.851Z,0
2017-06-09T00:03:38.439Z,0
2017-06-09T00:04:19.031Z,0
2017-06-09T00:04:59.619Z,0
2017-06-09T00:05:40.208Z,0
2017-06-09T00:06:20.796Z,0
2017-06-09T00:07:01.395Z,0
2017-06-09T00:07:41.987Z,0
2017-06-09T00:08:22.636Z,0
2017-06-09T00:09:03.197Z,0
2017-06-09T00:09:43.796Z,0
2017-06-09T00:10:24.396Z,0
2017-06-09T00:11:04.986Z,0
2017-06-09T00:11:45.635Z,0
2017-06-09T00:12:26.212Z,0
2017-06-09T00:13:06.840Z,0
2017-06-09T00:13:47.444Z,0
2017-06-09T00:14:28.031Z,0
2017-06-09T00:15:08.645Z,0
2017-06-09T00:15:49.237Z,0
2017-06-09T00:16:29.830Z,0
2017-06-09T00:17:10.408Z,0
2017-06-09T00:17:50.985Z,0
2017-06-09T00:18:31.595Z,0
2017-06-09T00:19:12.253Z,0
2017-06-09T00:19:52.840Z,0
2017-06-09T00:20:33.429Z,0
2017-06-09T00:21:14.017Z,0
2017-06-09T00:21:54.612Z,0
2017-06-09T00:22:35.244Z,0
2017-06-09T00:23:15.831Z,0
2017-06-09T00:23:56.421Z,0
2017-06-09T00:24:37.005Z,0
2017-06-09T00:25:17.590Z,0
2017-06-09T00:25:58.169Z,0
2017-06-09T00:26:38.761Z,0
2017-06-09T00:27:19.338Z,0
2017-06-09T00:27:59.923Z,0
2017-06-09T00:28:40.507Z,0
2017-06-09T00:29:21.118Z,0
2017-06-09T00:30:01.708Z,0
2017-06-09T00:30:42.332Z,0
2017-06-09T00:31:22.919Z,0
2017-06-09T00:32:03.551Z,0
2017-06-09T00:32:44.152Z,0
2017-06-09T00:33:24.745Z,0
2017-06-09T00:34:05.335Z,0
2017-06-09T00:34:45.947Z,0
2017-06-09T00:35:26.520Z,0
2017-06-09T00:36:07.106Z,0
2017-06-09T00:36:47.698Z,0
2017-06-09T00:37:28.273Z,0
2017-06-09T00:38:08.877Z,0
2017-06-09T00:38:49.454Z,0
2017-06-09T00:39:30.026Z,0
2017-06-09T00:40:10.614Z,0
2017-06-09T00:40:58.076Z,0
2017-06-09T00:41:38.625Z,0
2017-06-09T00:42:19.222Z,0
2017-06-09T00:42:59.804Z,0
2017-06-09T00:43:40.418Z,0
2017-06-09T00:44:20.992Z,0
2017-06-09T00:45:01.574Z,0
2017-06-09T00:45:42.189Z,0
2017-06-09T00:46:22.795Z,0
2017-06-09T00:47:03.454Z,0
2017-06-09T00:47:44.064Z,0
2017-06-09T00:48:24.645Z,0
2017-06-09T00:49:05.256Z,0
2017-06-09T00:49:45.843Z,0
2017-06-09T00:50:26.431Z,0
2017-06-09T00:51:07.016Z,0
2017-06-09T00:51:48.126Z,0
2017-06-09T00:52:28.720Z,0
2017-06-09T00:53:09.335Z,0
2017-06-09T00:53:49.952Z,0
2017-06-09T00:54:30.542Z,0
2017-06-09T00:55:11.128Z,0
2017-06-09T00:55:51.744Z,0
2017-06-09T00:56:32.341Z,0
2017-06-09T00:57:12.937Z,0
2017-06-09T00:57:53.530Z,0
2017-06-09T00:58:34.112Z,0
2017-06-09T00:59:14.702Z,0
2017-06-09T00:59:55.279Z,0
2017-06-09T01:00:40.673Z,0
2017-06-09T01:01:21.253Z,0
2017-06-09T01:02:01.835Z,0
2017-06-09T01:02:42.421Z,0
2017-06-09T01:03:23.001Z,0
2017-06-09T01:04:03.619Z,0
2017-06-09T01:04:44.200Z,0
2017-06-09T01:05:24.783Z,0
2017-06-09T01:06:05.360Z,0
2017-06-09T01:06:45.940Z,0
2017-06-09T01:07:26.537Z,0
2017-06-09T01:08:07.120Z,0
2017-06-09T01:08:47.717Z,0
2017-06-09T01:09:28.299Z,0
2017-06-09T01:10:08.887Z,0
2017-06-09T01:10:49.465Z,0
2017-06-09T01:11:30.051Z,0
2017-06-09T01:12:10.631Z,0
2017-06-09T01:12:51.217Z,0
2017-06-09T01:13:31.813Z,0
2017-06-09T01:14:12.407Z,0
2017-06-09T01:14:53.007Z,0
2017-06-09T01:15:33.610Z,0
2017-06-09T01:16:14.224Z,0
2017-06-09T01:16:54.840Z,0
2017-06-09T01:17:35.423Z,0
2017-06-09T01:18:16.009Z,0
2017-06-09T01:18:56.601Z,0
2017-06-09T01:19:37.181Z,0
2017-06-09T01:20:17.812Z,0
2017-06-09T01:20:58.408Z,0
2017-06-09T01:21:39.006Z,0
2017-06-09T01:22:19.597Z,0
2017-06-09T01:23:00.186Z,0
2017-06-09T01:23:40.778Z,0
2017-06-09T01:24:21.358Z,0
2017-06-09T01:25:01.947Z,0
2017-06-09T01:25:42.541Z,0
2017-06-09T01:26:23.142Z,0
2017-06-09T01:27:03.719Z,0
2017-06-09T01:27:44.300Z,0
2017-06-09T01:28:24.885Z,0
2017-06-09T01:29:05.470Z,0
2017-06-09T01:29:46.064Z,0
2017-06-09T01:30:26.652Z,0
2017-06-09T01:31:07.250Z,0
2017-06-09T01:31:47.854Z,0
2017-06-09T01:32:28.444Z,0
2017-06-09T01:33:09.024Z,0
2017-06-09T01:33:49.614Z,0
2017-06-09T01:34:30.195Z,0
2017-06-09T01:35:10.786Z,0
2017-06-09T01:35:51.372Z,0
2017-06-09T01:36:31.974Z,0
2017-06-09T01:37:12.589Z,0
2017-06-09T01:37:53.162Z,0
2017-06-09T01:38:33.753Z,0
2017-06-09T01:39:14.349Z,0
2017-06-09T01:39:54.932Z,0
2017-06-09T01:40:35.521Z,0
2017-06-09T01:41:16.105Z,0
2017-06-09T01:41:56.684Z,0
2017-06-09T01:42:37.276Z,0
2017-06-09T01:43:17.895Z,0
2017-06-09T01:43:58.486Z,0
2017-06-09T01:44:39.070Z,0
2017-06-09T01:45:19.647Z,0
2017-06-09T01:46:00.334Z,0
2017-06-09T01:46:40.838Z,0
2017-06-09T01:47:21.421Z,0
2017-06-09T01:48:02.019Z,0
2017-06-09T01:48:42.596Z,0
2017-06-09T01:49:23.191Z,0
2017-06-09T01:50:03.793Z,0
2017-06-09T01:50:44.391Z,0
2017-06-09T01:51:24.986Z,0
2017-06-09T01:52:05.598Z,0
2017-06-09T01:52:46.207Z,0
2017-06-09T01:53:26.785Z,0
2017-06-09T01:54:07.374Z,0
2017-06-09T01:54:47.971Z,0
2017-06-09T01:55:28.590Z,0
2017-06-09T01:56:09.192Z,0
2017-06-09T01:56:49.787Z,0
2017-06-09T01:57:30.400Z,0
2017-06-09T01:58:11.004Z,0
2017-06-09T01:58:51.625Z,0
2017-06-09T01:59:32.241Z,0
2017-06-09T02:00:12.828Z,0
2017-06-09T02:00:53.400Z,0
2017-06-09T02:01:34.002Z,0
2017-06-09T02:02:14.588Z,0
2017-06-09T02:02:55.184Z,0
2017-06-09T02:03:35.779Z,0
2017-06-09T02:04:16.367Z,0
2017-06-09T02:04:56.985Z,0
2017-06-09T02:05:37.583Z,0
2017-06-09T02:06:18.179Z,0
2017-06-09T02:06:58.774Z,4
2017-06-09T02:07:39.363Z,4
2017-06-09T02:08:19.975Z,4
2017-06-09T02:09:00.569Z,4
2017-06-09T02:09:41.158Z,4
2017-06-09T02:10:21.752Z,4
2017-06-09T02:11:02.359Z,0
2017-06-09T02:11:42.947Z,4
2017-06-09T02:12:23.523Z,4
2017-06-09T02:13:04.118Z,4
2017-06-09T02:13:44.729Z,4
2017-06-09T02:14:25.340Z,4
2017-06-09T02:15:05.948Z,4
2017-06-09T02:15:46.529Z,4
2017-06-09T02:16:27.138Z,4
2017-06-09T02:17:07.793Z,8
2017-06-09T02:17:48.434Z,4
2017-06-09T02:18:29.015Z,8
2017-06-09T02:19:09.594Z,8
2017-06-09T02:19:50.184Z,12
2017-06-09T02:20:30.777Z,8
2017-06-09T02:21:11.354Z,12
2017-06-09T02:21:52.025Z,8
2017-06-09T02:22:32.624Z,12
2017-06-09T02:23:13.213Z,12
2017-06-09T02:23:53.790Z,16
2017-06-09T02:24:34.397Z,16
2017-06-09T02:25:14.987Z,12
2017-06-09T02:25:55.565Z,16
2017-06-09T02:26:36.176Z,16
2017-06-09T02:27:16.760Z,20
2017-06-09T02:27:57.347Z,20
2017-06-09T02:28:37.951Z,20
2017-06-09T02:29:18.527Z,24
2017-06-09T02:29:59.118Z,28
2017-06-09T02:30:39.714Z,28
2017-06-09T02:31:20.262Z,32
2017-06-09T02:32:00.949Z,32
2017-06-09T02:32:41.538Z,36
2017-06-09T02:33:22.120Z,44
2017-06-09T02:34:02.748Z,44
2017-06-09T02:34:43.328Z,52
2017-06-09T02:35:23.914Z,52
2017-06-09T02:36:04.495Z,60
2017-06-09T02:36:45.078Z,64
2017-06-09T02:37:25.667Z,68
2017-06-09T02:38:06.263Z,72
2017-06-09T02:38:46.872Z,72
2017-06-09T02:39:27.452Z,76
2017-06-09T02:40:08.039Z,84
2017-06-09T02:40:48.643Z,84
2017-06-09T02:41:29.223Z,84
2017-06-09T02:42:09.802Z,88
2017-06-09T02:42:50.389Z,92
2017-06-09T02:43:30.979Z,96
2017-06-09T02:44:11.644Z,96
2017-06-09T02:44:52.227Z,100
2017-06-09T02:45:32.808Z,104
2017-06-09T02:46:13.391Z,108
2017-06-09T02:46:54.017Z,112
2017-06-09T02:47:34.641Z,116
2017-06-09T02:48:15.220Z,124
2017-06-09T02:48:55.803Z,128
2017-06-09T02:49:36.397Z,132
2017-06-09T02:50:16.971Z,144
2017-06-09T02:50:57.571Z,148
2017-06-09T02:51:38.171Z,152
2017-06-09T02:52:18.761Z,160
2017-06-09T02:52:59.341Z,164
2017-06-09T02:53:39.906Z,172
2017-06-09T02:54:20.507Z,176
2017-06-09T02:55:01.099Z,184
2017-06-09T02:55:41.687Z,192
2017-06-09T02:56:22.277Z,200
2017-06-09T02:57:02.891Z,208
2017-06-09T02:57:43.484Z,212
2017-06-09T02:58:24.064Z,224
2017-06-09T02:59:04.665Z,232
2017-06-09T02:59:45.253Z,244
2017-06-09T03:00:25.853Z,248
2017-06-09T03:01:06.458Z,264
2017-06-09T03:01:47.048Z,272
2017-06-09T03:02:27.647Z,284
2017-06-09T03:03:08.276Z,296
2017-06-09T03:03:48.856Z,312
2017-06-09T03:04:29.472Z,324
2017-06-09T03:05:10.127Z,336
2017-06-09T03:05:50.714Z,348
2017-06-09T03:06:31.309Z,360
2017-06-09T03:07:12.018Z,376
2017-06-09T03:07:52.624Z,384
2017-06-09T03:08:33.230Z,400
2017-06-09T03:09:13.810Z,412
2017-06-09T03:09:54.405Z,428
2017-06-09T03:10:35.013Z,448
2017-06-09T03:11:15.609Z,464
2017-06-09T03:11:56.216Z,488
2017-06-09T03:12:36.803Z,504
2017-06-09T03:13:17.386Z,528
2017-06-09T03:13:57.978Z,544
2017-06-09T03:14:38.561Z,568
2017-06-09T03:15:19.171Z,588
2017-06-09T03:15:59.789Z,612
2017-06-09T03:16:40.399Z,632
2017-06-09T03:17:21.035Z,652
2017-06-09T03:18:01.609Z,676
2017-06-09T03:18:42.237Z,700
2017-06-09T03:19:22.825Z,724
2017-06-09T03:20:03.507Z,752
2017-06-09T03:20:44.101Z,780
2017-06-09T03:21:24.710Z,808
2017-06-09T03:22:05.302Z,832
2017-06-09T03:22:45.888Z,852
2017-06-09T03:23:26.499Z,872
2017-06-09T03:24:07.109Z,888
2017-06-09T03:24:47.863Z,896
2017-06-09T03:25:28.367Z,904
2017-06-09T03:26:08.967Z,908
2017-06-09T03:26:49.588Z,912
2017-06-09T03:27:30.177Z,908
2017-06-09T03:28:10.813Z,904
2017-06-09T03:28:51.444Z,896
2017-06-09T03:29:32.250Z,892
2017-06-09T03:30:12.842Z,892
2017-06-09T03:30:53.434Z,888
2017-06-09T03:31:34.033Z,892
2017-06-09T03:32:14.613Z,892
2017-06-09T03:32:55.436Z,904
2017-06-09T03:33:36.253Z,912
2017-06-09T03:34:16.835Z,920
2017-06-09T03:34:57.702Z,924
2017-06-09T03:35:38.332Z,936
2017-06-09T03:36:18.944Z,940
2017-06-09T03:36:59.528Z,940
2017-06-09T03:37:40.123Z,956
2017-06-09T03:38:20.718Z,972
2017-06-09T03:39:01.379Z,992
2017-06-09T03:39:41.966Z,1008
2017-06-09T03:40:22.589Z,1028
2017-06-09T03:41:03.157Z,1048
2017-06-09T03:41:43.763Z,1068
2017-06-09T03:42:24.353Z,1088
2017-06-09T03:43:04.959Z,1108
2017-06-09T03:43:45.583Z,1124
2017-06-09T03:44:26.167Z,1136
2017-06-09T03:45:06.750Z,1144
2017-06-09T03:45:47.341Z,1148
2017-06-09T03:46:27.985Z,1140
2017-06-09T03:47:08.593Z,1132
2017-06-09T03:47:49.189Z,1116
2017-06-09T03:48:29.761Z,1112
2017-06-09T03:49:10.365Z,1104
2017-06-09T03:49:50.953Z,1104
2017-06-09T03:50:31.636Z,1100
2017-06-09T03:51:12.142Z,1096
2017-06-09T03:51:52.727Z,1096
2017-06-09T03:52:33.361Z,1088
2017-06-09T03:53:13.966Z,1084
2017-06-09T03:53:54.546Z,1084
2017-06-09T03:54:35.151Z,1080
2017-06-09T03:55:15.743Z,1072
2017-06-09T03:55:56.331Z,1072
2017-06-09T03:56:36.941Z,1072
2017-06-09T03:57:17.563Z,1080
2017-06-09T03:57:58.301Z,1088
2017-06-09T03:58:38.883Z,1096
2017-06-09T03:59:19.465Z,1100
2017-06-09T04:00:00.099Z,1104
2017-06-09T04:00:40.700Z,1116
2017-06-09T04:01:21.299Z,1128
2017-06-09T04:02:01.896Z,1144
2017-06-09T04:02:42.499Z,1164
2017-06-09T04:03:23.102Z,1176
2017-06-09T04:04:03.684Z,1192
2017-06-09T04:04:44.265Z,1232
2017-06-09T04:05:24.855Z,1276
2017-06-09T04:06:05.450Z,1300
2017-06-09T04:06:46.057Z,1320
2017-06-09T04:07:26.639Z,1352
2017-06-09T04:08:07.337Z,1392
2017-06-09T04:08:47.917Z,1424
2017-06-09T04:09:28.512Z,1460
2017-06-09T04:10:09.102Z,1500
2017-06-09T04:10:49.697Z,1540
2017-06-09T04:11:30.313Z,1572
2017-06-09T04:12:10.859Z,1600
2017-06-09T04:12:51.458Z,1620
2017-06-09T04:13:32.033Z,1632
2017-06-09T04:14:12.610Z,1648
2017-06-09T04:14:53.201Z,1660
2017-06-09T04:15:33.771Z,1668
2017-06-09T04:16:14.373Z,1672
2017-06-09T04:16:54.971Z,1676
2017-06-09T04:17:35.555Z,1680
2017-06-09T04:18:16.146Z,1680
2017-06-09T04:18:56.766Z,1680
2017-06-09T04:19:37.362Z,1688
2017-06-09T04:20:17.948Z,1692
2017-06-09T04:20:58.637Z,1696
2017-06-09T04:21:39.134Z,1692
2017-06-09T04:22:19.738Z,1680
2017-06-09T04:23:00.337Z,1672
2017-06-09T04:23:40.946Z,1676
2017-06-09T04:24:21.535Z,1680
2017-06-09T04:25:02.126Z,1684
2017-06-09T04:25:42.711Z,1704
2017-06-09T04:26:23.305Z,1720
2017-06-09T04:27:03.898Z,1736
2017-06-09T04:27:44.522Z,1756
2017-06-09T04:28:25.107Z,1772
2017-06-09T04:29:05.695Z,1780
2017-06-09T04:29:46.270Z,1792
2017-06-09T04:30:26.849Z,1800
2017-06-09T04:31:07.442Z,1832
2017-06-09T04:31:48.048Z,1864
2017-06-09T04:32:28.646Z,1888
2017-06-09T04:33:09.237Z,1920
2017-06-09T04:33:49.826Z,1944
2017-06-09T04:34:30.447Z,1960
2017-06-09T04:35:11.100Z,1980
2017-06-09T04:35:51.726Z,2004
2017-06-09T04:36:32.354Z,2016
2017-06-09T04:37:12.939Z,2032
2017-06-09T04:37:53.592Z,2048
2017-06-09T04:38:34.498Z,2064
2017-06-09T04:39:15.234Z,2080
2017-06-09T04:39:55.954Z,2096
2017-06-09T04:40:36.544Z,2112
2017-06-09T04:41:17.393Z,2140
2017-06-09T04:41:58.093Z,2152
2017-06-09T04:42:38.699Z,2176
2017-06-09T04:43:19.421Z,2204
2017-06-09T04:44:00.041Z,2232
2017-06-09T04:44:40.631Z,2260
2017-06-09T04:45:21.226Z,2280
2017-06-09T04:46:01.822Z,2292
2017-06-09T04:46:42.413Z,2312
2017-06-09T04:47:23.354Z,2348
2017-06-09T04:48:03.827Z,2388
2017-06-09T04:48:44.460Z,2424
2017-06-09T04:49:25.051Z,2452
2017-06-09T04:50:05.644Z,2468
2017-06-09T04:50:46.235Z,2480
2017-06-09T04:51:26.829Z,2500
2017-06-09T04:52:07.424Z,2508
2017-06-09T04:52:48.008Z,2516
2017-06-09T04:53:28.652Z,2512
2017-06-09T04:54:09.291Z,2504
2017-06-09T04:54:49.880Z,2496
2017-06-09T04:55:30.496Z,2500
2017-06-09T04:56:11.105Z,2512
2017-06-09T04:56:51.699Z,2504
2017-06-09T04:57:32.308Z,2540
2017-06-09T04:58:12.926Z,2572
2017-06-09T04:58:53.519Z,2580
2017-06-09T04:59:34.127Z,2604
2017-06-09T05:00:14.723Z,2640
2017-06-09T05:00:55.305Z,2640
2017-06-09T05:01:35.885Z,2656
2017-06-09T05:02:16.466Z,2720
2017-06-09T05:02:57.052Z,2804
2017-06-09T05:03:37.653Z,2916
2017-06-09T05:04:18.231Z,3068
2017-06-09T05:04:58.818Z,3220
2017-06-09T05:05:39.541Z,3304
2017-06-09T05:06:20.153Z,3292
2017-06-09T05:07:00.738Z,3164
2017-06-09T05:07:41.354Z,3056
2017-06-09T05:08:21.942Z,3036
2017-06-09T05:09:02.528Z,3088
2017-06-09T05:09:43.113Z,3156
2017-06-09T05:10:23.707Z,3212
2017-06-09T05:11:04.303Z,3280
2017-06-09T05:11:44.898Z,3364
2017-06-09T05:12:25.577Z,3444
2017-06-09T05:13:06.161Z,3548
2017-06-09T05:13:46.757Z,3740
2017-06-09T05:14:27.423Z,4012
2017-06-09T05:15:08.462Z,4292
2017-06-09T05:15:49.113Z,4556
2017-06-09T05:16:29.711Z,4760
2017-06-09T05:17:10.340Z,4968
2017-06-09T05:17:50.963Z,5172
2017-06-09T05:18:31.561Z,5456
2017-06-09T05:19:12.742Z,6008
2017-06-09T05:19:53.334Z,7596
2017-06-09T05:20:34.853Z,18336
2017-06-09T05:21:15.530Z,35488
2017-06-09T05:21:56.139Z,50432
2017-06-09T05:22:36.985Z,62656
2017-06-09T05:23:17.676Z,66464
2017-06-09T05:23:58.260Z,69728
2017-06-09T05:24:38.874Z,69440
2017-06-09T05:25:20.436Z,69376
2017-06-09T05:26:00.856Z,69600
2017-06-09T05:26:41.464Z,70464
2017-06-09T05:27:22.061Z,70240
2017-06-09T05:28:02.653Z,71488
2017-06-09T05:28:43.267Z,72576
2017-06-09T05:29:23.864Z,73760
2017-06-09T05:30:04.471Z,74112
2017-06-09T05:30:45.066Z,73216
2017-06-09T05:31:25.664Z,69888
2017-06-09T05:32:06.257Z,69216
2017-06-09T05:32:46.850Z,68160
2017-06-09T05:33:27.462Z,69312
2017-06-09T05:34:08.073Z,71296
2017-06-09T05:34:48.690Z,73600
2017-06-09T05:35:29.289Z,73248
2017-06-09T05:36:09.874Z,73984
2017-06-09T05:36:50.471Z,72640
2017-06-09T05:37:31.107Z,70784
2017-06-09T05:38:11.708Z,72672
2017-06-09T05:38:52.306Z,72928
2017-06-09T05:39:32.902Z,74784
2017-06-09T05:40:13.530Z,76320
2017-06-09T05:40:54.148Z,76704
2017-06-09T05:41:34.719Z,75552
2017-06-09T05:42:15.309Z,74688
2017-06-09T05:42:55.900Z,73280
2017-06-09T05:43:36.529Z,73440
2017-06-09T05:44:17.534Z,71584
2017-06-09T05:44:58.235Z,74656
2017-06-09T05:45:38.834Z,75616
2017-06-09T05:46:19.477Z,76512
2017-06-09T05:47:00.043Z,76608
2017-06-09T05:47:40.679Z,75776
2017-06-09T05:48:21.259Z,77120
2017-06-09T05:49:01.938Z,81472
2017-06-09T05:49:42.608Z,84064
2017-06-09T05:50:23.199Z,84544
2017-06-09T05:51:03.800Z,85952
2017-06-09T05:51:44.423Z,86336
2017-06-09T05:52:25.023Z,86720
2017-06-09T05:53:05.623Z,87360
2017-06-09T05:53:46.219Z,87200
2017-06-09T05:54:26.831Z,87424
2017-06-09T05:55:07.435Z,83104
2017-06-09T05:55:48.029Z,82016
2017-06-09T05:56:28.619Z,80512
2017-06-09T05:57:09.243Z,79904
2017-06-09T05:57:49.890Z,74976
2017-06-09T05:58:30.558Z,75616
2017-06-09T05:59:11.149Z,71840
2017-06-09T05:59:51.745Z,71936
2017-06-09T06:00:32.338Z,74432
2017-06-09T06:01:12.950Z,77824
2017-06-09T06:01:53.641Z,78848
2017-06-09T06:02:34.340Z,81504
2017-06-09T06:03:14.957Z,82912
2017-06-09T06:03:55.588Z,85088
2017-06-09T06:04:36.165Z,83744
2017-06-09T06:05:16.748Z,81664
2017-06-09T06:05:57.361Z,83872
2017-06-09T06:06:37.992Z,84896
2017-06-09T06:07:18.601Z,87712
2017-06-09T06:07:59.210Z,91200
2017-06-09T06:08:39.931Z,90560
2017-06-09T06:09:20.549Z,87520
2017-06-09T06:10:02.253Z,85536
2017-06-09T06:10:43.007Z,85856
2017-06-09T06:11:25.491Z,89568
2017-06-09T06:12:06.405Z,93440
2017-06-09T06:12:54.693Z,96192
2017-06-09T06:13:37.271Z,98144
2017-06-09T06:14:17.922Z,98816
2017-06-09T06:14:58.598Z,97408
2017-06-09T06:15:39.185Z,97088
2017-06-09T06:16:19.864Z,94688
2017-06-09T06:17:01.955Z,94496
2017-06-09T06:17:42.620Z,96288
2017-06-09T06:18:23.267Z,96640
2017-06-09T06:19:03.881Z,94496
2017-06-09T06:19:44.499Z,90720
2017-06-09T06:20:25.104Z,87936
2017-06-09T06:21:05.714Z,86560
2017-06-09T06:21:46.316Z,86848
2017-06-09T06:22:26.919Z,88896
2017-06-09T06:23:07.543Z,91520
2017-06-09T06:23:48.330Z,91072
2017-06-09T06:24:28.917Z,91104
2017-06-09T06:25:09.525Z,91168
2017-06-09T06:25:50.536Z,91712
2017-06-09T06:26:31.040Z,91712
2017-06-09T06:27:11.707Z,88672
2017-06-09T06:27:52.290Z,86304
2017-06-09T06:28:32.998Z,88896
2017-06-09T06:29:13.576Z,88288
2017-06-09T06:29:54.166Z,87296
2017-06-09T06:30:34.770Z,81984
2017-06-09T06:31:16.276Z,82624
2017-06-09T06:31:56.895Z,83296
2017-06-09T06:32:38.554Z,85536
2017-06-09T06:33:19.237Z,86944
2017-06-09T06:34:03.525Z,89728
2017-06-09T06:34:47.964Z,89184
2017-06-09T06:35:36.806Z,85248
2017-06-09T06:36:25.844Z,80032
2017-06-09T06:37:10.425Z,75200
2017-06-09T06:37:52.932Z,66976
2017-06-09T06:38:33.601Z,70592
2017-06-09T06:39:14.882Z,67488
2017-06-09T06:39:55.483Z,59552
2017-06-09T06:40:36.242Z,63296
2017-06-09T06:41:17.269Z,60096
2017-06-09T06:41:58.262Z,55648
2017-06-09T06:42:39.494Z,55520
2017-06-09T06:43:21.569Z,57184
2017-06-09T06:44:03.501Z,60320
2017-06-09T06:44:45.400Z,65120
2017-06-09T06:45:27.584Z,64320
2017-06-09T06:46:09.158Z,64000
2017-06-09T06:46:50.233Z,60448
2017-06-09T06:47:31.174Z,54752
2017-06-09T06:48:11.758Z,51936
2017-06-09T06:48:52.768Z,49856
2017-06-09T06:49:34.307Z,45952
2017-06-09T06:50:15.511Z,46976
2017-06-09T06:50:56.194Z,55392
2017-06-09T06:51:37.283Z,56192
2017-06-09T06:52:18.215Z,56768
2017-06-09T06:52:59.283Z,52800
2017-06-09T06:53:40.017Z,52160
2017-06-09T06:54:20.787Z,55936
2017-06-09T06:55:01.638Z,55808
2017-06-09T06:55:42.548Z,55680
2017-06-09T06:56:24.575Z,44192
2017-06-09T06:57:05.514Z,35168
2017-06-09T06:57:46.355Z,38816
2017-06-09T06:58:27.352Z,45120
2017-06-09T06:59:08.133Z,54944
2017-06-09T06:59:48.890Z,59488
2017-06-09T07:00:33.263Z,66112
2017-06-09T07:01:14.017Z,66592
2017-06-09T07:01:54.668Z,67872
2017-06-09T07:02:35.368Z,67136
2017-06-09T07:03:16.610Z,65472
2017-06-09T07:03:57.396Z,58208
2017-06-09T07:04:38.295Z,52448
2017-06-09T07:05:19.204Z,42304
2017-06-09T07:05:59.941Z,52288
2017-06-09T07:06:40.559Z,60224
2017-06-09T07:07:21.190Z,59904
2017-06-09T07:08:01.783Z,55296
2017-06-09T07:08:42.374Z,52128
2017-06-09T07:09:22.997Z,48992
2017-06-09T07:10:03.691Z,58080
2017-06-09T07:10:44.314Z,60096
2017-06-09T07:11:24.911Z,54656
2017-06-09T07:12:05.525Z,51232
2017-06-09T07:12:46.115Z,47712
2017-06-09T07:13:26.712Z,52736
2017-06-09T07:14:07.319Z,51904
2017-06-09T07:14:47.913Z,65984
2017-06-09T07:15:28.518Z,72256
2017-06-09T07:16:20.561Z,73216
2017-06-09T07:17:02.147Z,77504
2017-06-09T07:17:42.739Z,72224
2017-06-09T07:18:23.388Z,73696
2017-06-09T07:19:04.112Z,72288
2017-06-09T07:19:44.738Z,69024
2017-06-09T07:20:29.413Z,67904
2017-06-09T07:21:10.329Z,70784
2017-06-09T07:21:50.934Z,64608
2017-06-09T07:22:31.529Z,66720
2017-06-09T07:23:17.805Z,56896
2017-06-09T07:24:01.659Z,62464
2017-06-09T07:24:44.659Z,66816
2017-06-09T07:25:27.166Z,69568
2017-06-09T07:26:07.950Z,71104
2017-06-09T07:26:49.389Z,72320
2017-06-09T07:27:32.826Z,72160
2017-06-09T07:28:13.447Z,76576
2017-06-09T07:28:54.966Z,79744
2017-06-09T07:29:36.526Z,78528
2017-06-09T07:30:17.664Z,75648
2017-06-09T07:30:58.226Z,80640
2017-06-09T07:31:38.822Z,83840
2017-06-09T07:32:19.423Z,84384
2017-06-09T07:33:00.189Z,87360
2017-06-09T07:33:40.806Z,86176
2017-06-09T07:34:21.412Z,85472
2017-06-09T07:35:02.021Z,86656
2017-06-09T07:35:42.794Z,89120
2017-06-09T07:36:25.713Z,88608
2017-06-09T07:37:09.553Z,85952
2017-06-09T07:37:59.320Z,86560
2017-06-09T07:39:15.120Z,88576
2017-06-09T07:40:04.217Z,83232
2017-06-09T07:40:53.084Z,86528
2017-06-09T07:41:52.282Z,85344
2017-06-09T07:42:43.506Z,88320
2017-06-09T07:43:26.256Z,87424
2017-06-09T07:44:08.303Z,85632
2017-06-09T07:44:50.652Z,84832
2017-06-09T07:45:32.561Z,85056
2017-06-09T07:46:13.171Z,89056
2017-06-09T07:46:56.205Z,84480
2017-06-09T07:47:38.067Z,82880
2017-06-09T07:48:23.564Z,81152
2017-06-09T07:49:12.074Z,89184
2017-06-09T07:49:54.960Z,91392
2017-06-09T07:50:35.584Z,90752
2017-06-09T07:51:16.193Z,90016
2017-06-09T07:51:59.020Z,88800
2017-06-09T07:52:41.905Z,87712
2017-06-09T07:53:27.853Z,87200
2017-06-09T07:54:08.464Z,89216
2017-06-09T07:54:49.061Z,87008
2017-06-09T07:55:29.662Z,83168
2017-06-09T07:56:11.263Z,79296
2017-06-09T07:56:54.734Z,75808
2017-06-09T07:57:35.934Z,69408
2017-06-09T07:58:16.534Z,63392
2017-06-09T07:58:57.153Z,60672
2017-06-09T07:59:37.762Z,44928
2017-06-09T08:00:19.562Z,28544
2017-06-09T08:01:02.288Z,18752
2017-06-09T08:01:54.927Z,17184
2017-06-09T08:02:35.528Z,16544
2017-06-09T08:03:16.158Z,15904
2017-06-09T08:03:56.828Z,15456
2017-06-09T08:04:37.454Z,15168
2017-06-09T08:05:18.194Z,14848
2017-06-09T08:05:59.922Z,14220
2017-06-09T08:06:40.902Z,14464
2017-06-09T08:07:21.577Z,13940
2017-06-09T08:08:03.154Z,13816
2017-06-09T08:08:46.307Z,13684
2017-06-09T08:09:27.072Z,13572
2017-06-09T08:10:07.705Z,13492
2017-06-09T08:10:51.029Z,13200
2017-06-09T08:11:35.318Z,12208
2017-06-09T08:12:16.427Z,11880
2017-06-09T08:12:57.035Z,12272
2017-06-09T08:13:37.682Z,12212
2017-06-09T08:14:18.816Z,12516
2017-06-09T08:14:59.394Z,12108
2017-06-09T08:15:40.057Z,11900
2017-06-09T08:16:24.683Z,11748
2017-06-09T08:17:08.613Z,11780
2017-06-09T08:17:50.063Z,11592
2017-06-09T08:19:48.228Z,11128
2017-06-09T08:20:28.851Z,10784
2017-06-09T08:21:09.444Z,10536
2017-06-09T08:21:50.028Z,10376
2017-06-09T08:22:30.865Z,10136
2017-06-09T08:23:11.502Z,9992
2017-06-09T08:23:53.425Z,9848
2017-06-09T08:24:34.729Z,9680
2017-06-09T08:25:15.312Z,9496
2017-06-09T08:25:55.907Z,9256
2017-06-09T08:26:37.198Z,9072
2017-06-09T08:27:17.783Z,8872
2017-06-09T08:28:00.004Z,8708
2017-06-09T08:28:40.376Z,8452
2017-06-09T08:29:24.876Z,8200
2017-06-09T08:30:37.508Z,8120
2017-06-09T08:31:21.468Z,7908
2017-06-09T08:32:02.106Z,7780
2017-06-09T08:32:44.272Z,7820
2017-06-09T08:33:30.300Z,7812
2017-06-09T08:34:16.699Z,7876
2017-06-09T08:35:02.208Z,7756
2017-06-09T08:35:57.536Z,7696
2017-06-09T08:37:01.249Z,7664
2017-06-09T08:37:45.121Z,7588
2017-06-09T08:38:29.992Z,7572
2017-06-09T08:39:10.589Z,7532
2017-06-09T08:39:51.947Z,7400
2017-06-09T08:40:32.572Z,7336
2017-06-09T08:41:13.262Z,7308
2017-06-09T08:41:53.835Z,7264
2017-06-09T08:42:34.462Z,7264
2017-06-09T08:43:15.040Z,7100
2017-06-09T08:43:55.616Z,7032
2017-06-09T08:44:36.230Z,7068
2017-06-09T08:45:16.830Z,7148
2017-06-09T08:45:57.413Z,6992
2017-06-09T08:46:38.077Z,7004
2017-06-09T08:47:18.667Z,6924
2017-06-09T08:47:59.270Z,6912
2017-06-09T08:48:39.916Z,6896
2017-06-09T08:49:20.511Z,6876
2017-06-09T08:50:01.114Z,6872
2017-06-09T08:50:41.703Z,6844
2017-06-09T08:51:22.477Z,6800
2017-06-09T08:52:03.152Z,6700
2017-06-09T08:52:43.748Z,6696
2017-06-09T08:53:24.336Z,6644
2017-06-09T08:54:04.977Z,6528
2017-06-09T08:54:45.573Z,6408
2017-06-09T08:55:26.170Z,6328
2017-06-09T08:56:06.773Z,6260
2017-06-09T08:56:47.372Z,6128
2017-06-09T08:57:27.983Z,5976
2017-06-09T08:58:08.617Z,5928
2017-06-09T08:58:49.208Z,5856
2017-06-09T08:59:29.792Z,5780
2017-06-09T09:00:10.429Z,5744
2017-06-09T09:00:51.044Z,5636
2017-06-09T09:01:31.637Z,5580
2017-06-09T09:02:12.260Z,5524
2017-06-09T09:02:52.836Z,5460
2017-06-09T09:03:34.640Z,5376
2017-06-09T09:04:15.271Z,5320
2017-06-09T09:04:55.877Z,5268
2017-06-09T09:05:36.486Z,5192
2017-06-09T09:06:17.065Z,5116
2017-06-09T09:06:57.664Z,5080
2017-06-09T09:07:38.254Z,5020
2017-06-09T09:08:18.853Z,4952
2017-06-09T09:08:59.446Z,4884
2017-06-09T09:09:40.139Z,4804
2017-06-09T09:10:20.769Z,4768
2017-06-09T09:11:01.365Z,4716
2017-06-09T09:11:41.971Z,4664
2017-06-09T09:12:22.568Z,4616
2017-06-09T09:13:03.153Z,4572
2017-06-09T09:13:43.761Z,4500
2017-06-09T09:14:24.358Z,4472
2017-06-09T09:15:04.949Z,4436
2017-06-09T09:15:45.599Z,4388
2017-06-09T09:16:26.194Z,4348
2017-06-09T09:17:06.786Z,4316
2017-06-09T09:17:47.393Z,4272
2017-06-09T09:18:27.976Z,4228
2017-06-09T09:19:08.568Z,4188
2017-06-09T09:19:49.141Z,4152